Briefing drone pour Sainte-foy-les-lyon

Rechercher une autre localisation

Conditions de vol :


Nous sommes le : Vendredi 23 février 2024
Il est 03:53 UTC (04:53 LT)

Lever de soleil : 06:03 UTC (07:03 LT)
Coucher de soleil : 17:44 UTC (18:44 LT)

Météo

L'essentiel des conditions de vol

VIGILANCE MÉTÉO FRANCE - Rhône (69)
Pas de vigilances particulieres
CARTE TEMSI
CARTES DES FRONTS
METAR de LFLL
LFLL 230330Z AUTO 13004KT CAVOK 04/01 Q1002 NOSIG

Date d'émission: 23/02/2024
Heure d'émission: 03:30 UTC
Vent: 130° pour 4 KT (7 km/h)
Visibilité horizontale: > 10 km
Plafond : Plafond et visibilité OK (CAVOK)
Température: 4 °C
Point de rosée: 1 °C
Humidité: 81%
Pression (QNH): 1002 hPa
Conditions: Pas de changement dans les 2 heures (NOSIG)
TAF de LFLL
AMD AMD LFLL 221700Z 2218/2324 CNL

Conditions prévues :

Heure d'émission : Bulletin éffectué le 22 à 18:00 UTC
Prévision : Valide du 22 a 18:00 UTC au 23 a 23:59 UTC
Nuages : à 0ft (0 m)
WEBCAM POUR SAINTE-FOY-LES-LYON

Réglementation

Voler en sécurité

CARTES AERONAUTIQUE 1/500.000
CARTE AZBA (Reseau basse altitude)
CARTES VAC (LFLL)
SUP AIP




Chargement des AIP...
NOTAM (SAINTE-FOY-LES-LYON + Terrain à proximité / FIR )




Chargement des NOTAMS...
CONTACT PREFECTURE 69
Rhône (69) : [email protected]


Avertissement : Les données mises à disposition sont indicatives. Oxygène Drone ne pourra être tenu responsable de dégâts causés aux biens et aux personnes.